sensor_id;sensor_type;location;lat;lon;timestamp;P1;durP1;ratioP1;P2;durP2;ratioP2
32812;SDS011;19162;48.254;11.454;2022-09-09T00:08:45;2.92;;;2.45;;
32812;SDS011;19162;48.254;11.454;2022-09-09T00:11:52;2.85;;;2.47;;
32812;SDS011;19162;48.254;11.454;2022-09-09T00:14:56;3.97;;;2.50;;
32812;SDS011;19162;48.254;11.454;2022-09-09T00:21:18;2.28;;;2.08;;
32812;SDS011;19162;48.254;11.454;2022-09-09T00:24:29;6.25;;;3.90;;
32812;SDS011;19162;48.254;11.454;2022-09-09T00:27:34;3.85;;;3.53;;
32812;SDS011;19162;48.254;11.454;2022-09-09T00:30:37;6.55;;;3.90;;
32812;SDS011;19162;48.254;11.454;2022-09-09T00:33:38;6.27;;;4.53;;
32812;SDS011;19162;48.254;11.454;2022-09-09T00:36:39;4.82;;;3.80;;
32812;SDS011;19162;48.254;11.454;2022-09-09T00:39:44;3.80;;;3.10;;
32812;SDS011;19162;48.254;11.454;2022-09-09T00:42:46;2.95;;;2.75;;
32812;SDS011;19162;48.254;11.454;2022-09-09T00:58:37;3.67;;;2.70;;
32812;SDS011;19162;48.254;11.454;2022-09-09T01:01:38;4.80;;;2.50;;
32812;SDS011;19162;48.254;11.454;2022-09-09T01:04:39;3.22;;;1.80;;
32812;SDS011;19162;48.254;11.454;2022-09-09T01:10:52;3.25;;;2.00;;
32812;SDS011;19162;48.254;11.454;2022-09-09T01:13:55;2.50;;;2.30;;
32812;SDS011;19162;48.254;11.454;2022-09-09T01:17:08;2.20;;;1.98;;
32812;SDS011;19162;48.254;11.454;2022-09-09T01:20:14;2.50;;;2.28;;
32812;SDS011;19162;48.254;11.454;2022-09-09T01:23:26;2.38;;;1.70;;
32812;SDS011;19162;48.254;11.454;2022-09-09T01:29:28;2.80;;;1.90;;
32812;SDS011;19162;48.254;11.454;2022-09-09T01:32:39;2.90;;;1.90;;
32812;SDS011;19162;48.254;11.454;2022-09-09T01:35:48;2.20;;;1.92;;
32812;SDS011;19162;48.254;11.454;2022-09-09T01:38:51;3.22;;;2.00;;
32812;SDS011;19162;48.254;11.454;2022-09-09T01:41:51;3.28;;;1.75;;
32812;SDS011;19162;48.254;11.454;2022-09-09T01:44:51;6.72;;;2.15;;
32812;SDS011;19162;48.254;11.454;2022-09-09T01:47:52;2.35;;;2.08;;
32812;SDS011;19162;48.254;11.454;2022-09-09T01:50:52;2.17;;;1.65;;
32812;SDS011;19162;48.254;11.454;2022-09-09T01:53:53;3.27;;;1.90;;
32812;SDS011;19162;48.254;11.454;2022-09-09T02:00:01;2.33;;;1.90;;
32812;SDS011;19162;48.254;11.454;2022-09-09T02:03:07;2.67;;;1.97;;
32812;SDS011;19162;48.254;11.454;2022-09-09T02:06:22;3.83;;;1.73;;
32812;SDS011;19162;48.254;11.454;2022-09-09T02:09:25;2.88;;;1.73;;
32812;SDS011;19162;48.254;11.454;2022-09-09T02:12:25;2.38;;;2.03;;
32812;SDS011;19162;48.254;11.454;2022-09-09T02:15:47;5.68;;;2.53;;
32812;SDS011;19162;48.254;11.454;2022-09-09T02:18:51;4.40;;;1.88;;
32812;SDS011;19162;48.254;11.454;2022-09-09T02:21:56;3.53;;;2.13;;
32812;SDS011;19162;48.254;11.454;2022-09-09T02:24:58;4.18;;;2.58;;
32812;SDS011;19162;48.254;11.454;2022-09-09T02:27:59;2.83;;;1.75;;
32812;SDS011;19162;48.254;11.454;2022-09-09T02:30:59;2.40;;;2.20;;
32812;SDS011;19162;48.254;11.454;2022-09-09T02:34:00;3.17;;;2.13;;
32812;SDS011;19162;48.254;11.454;2022-09-09T02:37:01;6.03;;;2.45;;
32812;SDS011;19162;48.254;11.454;2022-09-09T02:40:03;4.03;;;2.63;;
32812;SDS011;19162;48.254;11.454;2022-09-09T02:43:04;4.85;;;2.22;;
32812;SDS011;19162;48.254;11.454;2022-09-09T02:49:11;3.28;;;2.20;;
32812;SDS011;19162;48.254;11.454;2022-09-09T02:52:20;5.15;;;2.33;;
32812;SDS011;19162;48.254;11.454;2022-09-09T02:55:43;6.03;;;2.40;;
32812;SDS011;19162;48.254;11.454;2022-09-09T02:58:45;3.67;;;2.55;;
32812;SDS011;19162;48.254;11.454;2022-09-09T03:01:46;2.10;;;2.00;;
32812;SDS011;19162;48.254;11.454;2022-09-09T03:04:46;2.28;;;2.08;;
32812;SDS011;19162;48.254;11.454;2022-09-09T03:07:50;4.97;;;2.40;;
32812;SDS011;19162;48.254;11.454;2022-09-09T03:10:51;4.43;;;2.33;;
32812;SDS011;19162;48.254;11.454;2022-09-09T03:13:52;3.65;;;2.42;;
32812;SDS011;19162;48.254;11.454;2022-09-09T03:16:52;3.00;;;2.67;;
32812;SDS011;19162;48.254;11.454;2022-09-09T03:19:53;4.30;;;2.35;;
32812;SDS011;19162;48.254;11.454;2022-09-09T03:22:55;2.40;;;2.00;;
32812;SDS011;19162;48.254;11.454;2022-09-09T03:25:55;2.22;;;2.03;;
32812;SDS011;19162;48.254;11.454;2022-09-09T03:28:57;5.63;;;2.45;;
32812;SDS011;19162;48.254;11.454;2022-09-09T03:31:57;2.70;;;2.13;;
32812;SDS011;19162;48.254;11.454;2022-09-09T03:34:57;2.57;;;2.10;;
32812;SDS011;19162;48.254;11.454;2022-09-09T03:37:57;3.17;;;2.07;;
32812;SDS011;19162;48.254;11.454;2022-09-09T03:40:57;2.97;;;2.30;;
32812;SDS011;19162;48.254;11.454;2022-09-09T03:43:58;2.40;;;2.22;;
32812;SDS011;19162;48.254;11.454;2022-09-09T03:46:58;2.60;;;2.10;;
32812;SDS011;19162;48.254;11.454;2022-09-09T03:50:02;2.55;;;2.35;;
32812;SDS011;19162;48.254;11.454;2022-09-09T03:53:04;2.23;;;2.03;;
32812;SDS011;19162;48.254;11.454;2022-09-09T03:56:06;2.25;;;2.05;;
32812;SDS011;19162;48.254;11.454;2022-09-09T03:59:06;2.40;;;2.20;;
32812;SDS011;19162;48.254;11.454;2022-09-09T04:02:08;4.68;;;2.17;;
32812;SDS011;19162;48.254;11.454;2022-09-09T04:05:09;3.17;;;2.05;;
32812;SDS011;19162;48.254;11.454;2022-09-09T04:08:09;4.50;;;2.50;;
32812;SDS011;19162;48.254;11.454;2022-09-09T04:11:10;6.37;;;3.13;;
32812;SDS011;19162;48.254;11.454;2022-09-09T04:14:10;2.57;;;2.00;;
32812;SDS011;19162;48.254;11.454;2022-09-09T04:17:10;2.63;;;2.13;;
32812;SDS011;19162;48.254;11.454;2022-09-09T04:20:11;4.97;;;2.10;;
32812;SDS011;19162;48.254;11.454;2022-09-09T04:23:12;4.97;;;2.05;;
32812;SDS011;19162;48.254;11.454;2022-09-09T04:26:12;2.25;;;1.80;;
32812;SDS011;19162;48.254;11.454;2022-09-09T04:29:12;3.60;;;2.05;;
32812;SDS011;19162;48.254;11.454;2022-09-09T04:32:12;3.17;;;1.63;;
32812;SDS011;19162;48.254;11.454;2022-09-09T04:35:12;3.50;;;1.85;;
32812;SDS011;19162;48.254;11.454;2022-09-09T04:38:13;3.93;;;1.83;;
32812;SDS011;19162;48.254;11.454;2022-09-09T04:41:13;2.30;;;1.83;;
32812;SDS011;19162;48.254;11.454;2022-09-09T04:44:14;2.20;;;2.00;;
32812;SDS011;19162;48.254;11.454;2022-09-09T04:47:14;2.92;;;1.90;;
32812;SDS011;19162;48.254;11.454;2022-09-09T04:50:14;2.03;;;1.90;;
32812;SDS011;19162;48.254;11.454;2022-09-09T04:53:15;3.35;;;1.70;;
32812;SDS011;19162;48.254;11.454;2022-09-09T04:56:17;3.15;;;1.80;;
32812;SDS011;19162;48.254;11.454;2022-09-09T04:59:17;2.47;;;1.90;;
32812;SDS011;19162;48.254;11.454;2022-09-09T05:02:17;3.25;;;1.80;;
32812;SDS011;19162;48.254;11.454;2022-09-09T05:05:18;8.60;;;2.22;;
32812;SDS011;19162;48.254;11.454;2022-09-09T05:08:18;4.05;;;2.00;;
32812;SDS011;19162;48.254;11.454;2022-09-09T05:11:29;1.88;;;1.52;;
32812;SDS011;19162;48.254;11.454;2022-09-09T05:14:29;3.70;;;2.35;;
32812;SDS011;19162;48.254;11.454;2022-09-09T05:17:30;2.90;;;1.90;;
32812;SDS011;19162;48.254;11.454;2022-09-09T05:20:30;4.03;;;1.77;;
32812;SDS011;19162;48.254;11.454;2022-09-09T05:23:31;4.40;;;2.28;;
32812;SDS011;19162;48.254;11.454;2022-09-09T05:26:31;2.55;;;1.90;;
32812;SDS011;19162;48.254;11.454;2022-09-09T05:29:32;2.28;;;1.75;;
32812;SDS011;19162;48.254;11.454;2022-09-09T05:32:33;3.00;;;1.98;;
32812;SDS011;19162;48.254;11.454;2022-09-09T05:35:34;3.58;;;2.28;;
32812;SDS011;19162;48.254;11.454;2022-09-09T05:38:34;2.30;;;2.13;;
32812;SDS011;19162;48.254;11.454;2022-09-09T05:41:34;2.78;;;2.00;;
32812;SDS011;19162;48.254;11.454;2022-09-09T05:44:35;5.20;;;2.10;;
32812;SDS011;19162;48.254;11.454;2022-09-09T05:47:37;3.15;;;2.15;;
32812;SDS011;19162;48.254;11.454;2022-09-09T05:50:37;3.58;;;2.35;;
32812;SDS011;19162;48.254;11.454;2022-09-09T05:53:37;3.17;;;1.98;;
32812;SDS011;19162;48.254;11.454;2022-09-09T05:56:37;4.95;;;3.03;;
32812;SDS011;19162;48.254;11.454;2022-09-09T05:59:37;3.83;;;2.55;;
32812;SDS011;19162;48.254;11.454;2022-09-09T06:02:38;2.67;;;2.33;;
32812;SDS011;19162;48.254;11.454;2022-09-09T06:05:38;4.15;;;2.42;;
32812;SDS011;19162;48.254;11.454;2022-09-09T06:08:39;6.15;;;2.05;;
32812;SDS011;19162;48.254;11.454;2022-09-09T06:11:40;3.08;;;1.73;;
32812;SDS011;19162;48.254;11.454;2022-09-09T06:14:41;4.88;;;2.85;;
32812;SDS011;19162;48.254;11.454;2022-09-09T06:17:41;5.13;;;2.70;;
32812;SDS011;19162;48.254;11.454;2022-09-09T06:20:41;5.95;;;2.72;;
32812;SDS011;19162;48.254;11.454;2022-09-09T06:23:41;6.40;;;2.77;;
32812;SDS011;19162;48.254;11.454;2022-09-09T06:26:42;9.40;;;3.07;;
32812;SDS011;19162;48.254;11.454;2022-09-09T06:29:42;12.50;;;3.47;;
32812;SDS011;19162;48.254;11.454;2022-09-09T06:32:42;7.93;;;2.50;;
32812;SDS011;19162;48.254;11.454;2022-09-09T06:35:42;5.68;;;2.55;;
32812;SDS011;19162;48.254;11.454;2022-09-09T06:38:52;4.50;;;2.15;;
32812;SDS011;19162;48.254;11.454;2022-09-09T06:41:52;2.88;;;2.20;;
32812;SDS011;19162;48.254;11.454;2022-09-09T06:44:53;6.35;;;2.58;;
32812;SDS011;19162;48.254;11.454;2022-09-09T06:47:54;7.50;;;2.20;;
32812;SDS011;19162;48.254;11.454;2022-09-09T06:51:10;3.55;;;2.10;;
32812;SDS011;19162;48.254;11.454;2022-09-09T06:54:11;3.92;;;2.22;;
32812;SDS011;19162;48.254;11.454;2022-09-09T06:57:12;6.28;;;2.38;;
32812;SDS011;19162;48.254;11.454;2022-09-09T07:00:12;3.37;;;1.90;;
32812;SDS011;19162;48.254;11.454;2022-09-09T07:03:13;4.82;;;1.85;;
32812;SDS011;19162;48.254;11.454;2022-09-09T07:06:14;2.47;;;1.50;;
32812;SDS011;19162;48.254;11.454;2022-09-09T07:09:17;3.05;;;2.10;;
32812;SDS011;19162;48.254;11.454;2022-09-09T07:12:17;2.23;;;1.70;;
32812;SDS011;19162;48.254;11.454;2022-09-09T07:15:17;2.80;;;1.77;;
32812;SDS011;19162;48.254;11.454;2022-09-09T07:18:19;6.18;;;2.10;;
32812;SDS011;19162;48.254;11.454;2022-09-09T07:21:19;2.80;;;1.80;;
32812;SDS011;19162;48.254;11.454;2022-09-09T07:24:20;2.78;;;1.73;;
32812;SDS011;19162;48.254;11.454;2022-09-09T07:27:21;2.00;;;1.70;;
32812;SDS011;19162;48.254;11.454;2022-09-09T07:30:21;1.60;;;1.50;;
32812;SDS011;19162;48.254;11.454;2022-09-09T07:33:22;2.00;;;1.80;;
32812;SDS011;19162;48.254;11.454;2022-09-09T07:36:23;1.92;;;1.50;;
32812;SDS011;19162;48.254;11.454;2022-09-09T07:39:24;2.17;;;1.80;;
32812;SDS011;19162;48.254;11.454;2022-09-09T07:42:24;2.05;;;1.70;;
32812;SDS011;19162;48.254;11.454;2022-09-09T07:45:24;1.63;;;1.52;;
32812;SDS011;19162;48.254;11.454;2022-09-09T07:48:24;3.58;;;1.80;;
32812;SDS011;19162;48.254;11.454;2022-09-09T07:51:27;3.25;;;2.38;;
32812;SDS011;19162;48.254;11.454;2022-09-09T07:54:27;3.13;;;2.00;;
32812;SDS011;19162;48.254;11.454;2022-09-09T07:57:28;2.90;;;2.13;;
32812;SDS011;19162;48.254;11.454;2022-09-09T08:00:30;5.13;;;2.20;;
32812;SDS011;19162;48.254;11.454;2022-09-09T08:03:30;4.07;;;1.80;;
32812;SDS011;19162;48.254;11.454;2022-09-09T08:06:39;1.70;;;1.60;;
32812;SDS011;19162;48.254;11.454;2022-09-09T08:09:40;4.07;;;2.50;;
32812;SDS011;19162;48.254;11.454;2022-09-09T08:12:40;3.35;;;2.38;;
32812;SDS011;19162;48.254;11.454;2022-09-09T08:15:41;3.05;;;1.92;;
32812;SDS011;19162;48.254;11.454;2022-09-09T08:18:42;2.80;;;2.40;;
32812;SDS011;19162;48.254;11.454;2022-09-09T08:21:43;5.50;;;2.85;;
32812;SDS011;19162;48.254;11.454;2022-09-09T08:24:43;3.10;;;2.17;;
32812;SDS011;19162;48.254;11.454;2022-09-09T08:27:44;2.70;;;2.00;;
32812;SDS011;19162;48.254;11.454;2022-09-09T08:30:44;2.45;;;2.25;;
32812;SDS011;19162;48.254;11.454;2022-09-09T08:33:44;2.00;;;1.85;;
32812;SDS011;19162;48.254;11.454;2022-09-09T08:36:48;3.30;;;1.63;;
32812;SDS011;19162;48.254;11.454;2022-09-09T08:39:48;1.70;;;1.60;;
32812;SDS011;19162;48.254;11.454;2022-09-09T08:42:49;3.78;;;2.50;;
32812;SDS011;19162;48.254;11.454;2022-09-09T08:45:57;3.70;;;2.42;;
32812;SDS011;19162;48.254;11.454;2022-09-09T08:49:02;2.25;;;2.03;;
32812;SDS011;19162;48.254;11.454;2022-09-09T08:52:04;2.80;;;2.50;;
32812;SDS011;19162;48.254;11.454;2022-09-09T09:10:46;2.35;;;1.38;;
32812;SDS011;19162;48.254;11.454;2022-09-09T09:13:55;5.05;;;2.42;;
32812;SDS011;19162;48.254;11.454;2022-09-09T09:16:58;5.55;;;2.55;;
32812;SDS011;19162;48.254;11.454;2022-09-09T09:19:59;5.63;;;2.25;;
32812;SDS011;19162;48.254;11.454;2022-09-09T09:23:00;7.13;;;2.00;;
32812;SDS011;19162;48.254;11.454;2022-09-09T09:26:05;3.92;;;1.75;;
32812;SDS011;19162;48.254;11.454;2022-09-09T09:29:10;2.63;;;1.60;;
32812;SDS011;19162;48.254;11.454;2022-09-09T09:32:13;4.35;;;1.80;;
32812;SDS011;19162;48.254;11.454;2022-09-09T09:35:14;3.90;;;2.00;;
32812;SDS011;19162;48.254;11.454;2022-09-09T09:38:18;4.43;;;1.98;;
32812;SDS011;19162;48.254;11.454;2022-09-09T09:41:29;4.15;;;1.98;;
32812;SDS011;19162;48.254;11.454;2022-09-09T09:44:31;4.43;;;1.75;;
32812;SDS011;19162;48.254;11.454;2022-09-09T09:47:31;3.22;;;1.90;;
32812;SDS011;19162;48.254;11.454;2022-09-09T09:50:32;2.25;;;1.45;;
32812;SDS011;19162;48.254;11.454;2022-09-09T09:53:34;2.05;;;1.40;;
32812;SDS011;19162;48.254;11.454;2022-09-09T09:56:34;2.58;;;1.80;;
32812;SDS011;19162;48.254;11.454;2022-09-09T09:59:35;6.53;;;2.20;;
32812;SDS011;19162;48.254;11.454;2022-09-09T10:02:39;2.55;;;1.83;;
32812;SDS011;19162;48.254;11.454;2022-09-09T10:05:44;3.00;;;1.75;;
32812;SDS011;19162;48.254;11.454;2022-09-09T10:08:45;2.60;;;1.88;;
32812;SDS011;19162;48.254;11.454;2022-09-09T10:12:29;1.88;;;1.60;;
32812;SDS011;19162;48.254;11.454;2022-09-09T10:21:51;4.22;;;1.30;;
32812;SDS011;19162;48.254;11.454;2022-09-09T10:25:00;3.72;;;1.85;;
32812;SDS011;19162;48.254;11.454;2022-09-09T10:28:11;2.15;;;1.25;;
32812;SDS011;19162;48.254;11.454;2022-09-09T10:40:38;3.15;;;1.40;;
32812;SDS011;19162;48.254;11.454;2022-09-09T10:43:52;2.00;;;1.40;;
32812;SDS011;19162;48.254;11.454;2022-09-09T10:50:11;3.45;;;1.35;;
32812;SDS011;19162;48.254;11.454;2022-09-09T10:53:16;1.60;;;1.15;;
32812;SDS011;19162;48.254;11.454;2022-09-09T10:56:20;3.20;;;1.48;;
32812;SDS011;19162;48.254;11.454;2022-09-09T10:59:22;2.23;;;1.20;;
32812;SDS011;19162;48.254;11.454;2022-09-09T11:02:27;4.07;;;1.38;;
32812;SDS011;19162;48.254;11.454;2022-09-09T11:08:54;2.90;;;1.95;;
32812;SDS011;19162;48.254;11.454;2022-09-09T11:15:17;5.50;;;1.67;;
32812;SDS011;19162;48.254;11.454;2022-09-09T11:18:20;4.03;;;1.30;;
32812;SDS011;19162;48.254;11.454;2022-09-09T11:27:30;3.27;;;1.23;;
32812;SDS011;19162;48.254;11.454;2022-09-09T11:30:42;2.83;;;1.40;;
32812;SDS011;19162;48.254;11.454;2022-09-09T11:33:56;1.23;;;1.00;;
32812;SDS011;19162;48.254;11.454;2022-09-09T11:40:08;2.33;;;1.08;;
32812;SDS011;19162;48.254;11.454;2022-09-09T11:46:10;2.13;;;0.80;;
32812;SDS011;19162;48.254;11.454;2022-09-09T11:52:44;2.60;;;1.10;;
32812;SDS011;19162;48.254;11.454;2022-09-09T11:55:59;2.15;;;0.90;;
32812;SDS011;19162;48.254;11.454;2022-09-09T11:59:02;2.38;;;1.50;;
32812;SDS011;19162;48.254;11.454;2022-09-09T12:02:10;1.55;;;0.93;;
32812;SDS011;19162;48.254;11.454;2022-09-09T12:05:13;1.58;;;1.30;;
32812;SDS011;19162;48.254;11.454;2022-09-09T12:08:16;4.80;;;1.23;;
32812;SDS011;19162;48.254;11.454;2022-09-09T12:11:29;2.53;;;1.02;;
32812;SDS011;19162;48.254;11.454;2022-09-09T12:17:46;3.20;;;1.05;;
32812;SDS011;19162;48.254;11.454;2022-09-09T12:21:33;3.05;;;0.93;;
32812;SDS011;19162;48.254;11.454;2022-09-09T12:24:09;2.60;;;1.02;;
32812;SDS011;19162;48.254;11.454;2022-09-09T12:30:22;4.85;;;0.85;;
32812;SDS011;19162;48.254;11.454;2022-09-09T12:33:36;2.25;;;1.00;;
32812;SDS011;19162;48.254;11.454;2022-09-09T12:36:38;2.60;;;1.20;;
32812;SDS011;19162;48.254;11.454;2022-09-09T12:40:40;2.33;;;1.05;;
32812;SDS011;19162;48.254;11.454;2022-09-09T12:43:19;3.25;;;1.40;;
32812;SDS011;19162;48.254;11.454;2022-09-09T12:46:23;4.38;;;1.40;;
32812;SDS011;19162;48.254;11.454;2022-09-09T12:49:30;1.98;;;1.08;;
32812;SDS011;19162;48.254;11.454;2022-09-09T12:52:36;1.70;;;0.60;;
32812;SDS011;19162;48.254;11.454;2022-09-09T12:55:38;2.72;;;1.13;;
32812;SDS011;19162;48.254;11.454;2022-09-09T12:58:39;2.03;;;0.82;;
32812;SDS011;19162;48.254;11.454;2022-09-09T13:01:54;2.33;;;0.85;;
32812;SDS011;19162;48.254;11.454;2022-09-09T13:04:54;2.75;;;1.00;;
32812;SDS011;19162;48.254;11.454;2022-09-09T13:08:06;3.80;;;1.17;;
32812;SDS011;19162;48.254;11.454;2022-09-09T13:11:08;2.42;;;0.93;;
32812;SDS011;19162;48.254;11.454;2022-09-09T13:14:18;1.60;;;0.70;;
32812;SDS011;19162;48.254;11.454;2022-09-09T13:17:24;1.25;;;0.77;;
32812;SDS011;19162;48.254;11.454;2022-09-09T13:20:24;3.85;;;1.10;;
32812;SDS011;19162;48.254;11.454;2022-09-09T13:23:32;1.55;;;0.70;;
32812;SDS011;19162;48.254;11.454;2022-09-09T13:26:32;2.70;;;0.90;;
32812;SDS011;19162;48.254;11.454;2022-09-09T13:29:33;2.60;;;1.13;;
32812;SDS011;19162;48.254;11.454;2022-09-09T13:32:34;1.67;;;1.00;;
32812;SDS011;19162;48.254;11.454;2022-09-09T13:35:34;1.63;;;0.60;;
32812;SDS011;19162;48.254;11.454;2022-09-09T13:38:36;2.15;;;1.00;;
32812;SDS011;19162;48.254;11.454;2022-09-09T13:41:42;3.65;;;1.23;;
32812;SDS011;19162;48.254;11.454;2022-09-09T13:44:44;2.15;;;0.90;;
32812;SDS011;19162;48.254;11.454;2022-09-09T13:47:46;2.30;;;0.90;;
32812;SDS011;19162;48.254;11.454;2022-09-09T13:51:03;2.30;;;0.60;;
32812;SDS011;19162;48.254;11.454;2022-09-09T13:54:05;2.08;;;0.85;;
32812;SDS011;19162;48.254;11.454;2022-09-09T13:57:19;1.38;;;0.90;;
32812;SDS011;19162;48.254;11.454;2022-09-09T14:00:20;2.83;;;0.80;;
32812;SDS011;19162;48.254;11.454;2022-09-09T14:03:21;1.95;;;0.73;;
32812;SDS011;19162;48.254;11.454;2022-09-09T14:06:21;2.17;;;0.73;;
32812;SDS011;19162;48.254;11.454;2022-09-09T14:09:21;1.17;;;0.90;;
32812;SDS011;19162;48.254;11.454;2022-09-09T14:12:22;1.55;;;0.52;;
32812;SDS011;19162;48.254;11.454;2022-09-09T14:15:22;1.60;;;0.60;;
32812;SDS011;19162;48.254;11.454;2022-09-09T14:18:22;3.00;;;0.73;;
32812;SDS011;19162;48.254;11.454;2022-09-09T14:21:23;2.25;;;1.23;;
32812;SDS011;19162;48.254;11.454;2022-09-09T14:24:23;3.63;;;3.00;;
32812;SDS011;19162;48.254;11.454;2022-09-09T14:27:25;6.32;;;3.50;;
32812;SDS011;19162;48.254;11.454;2022-09-09T14:30:28;2.38;;;1.33;;
32812;SDS011;19162;48.254;11.454;2022-09-09T14:33:28;1.27;;;0.50;;
32812;SDS011;19162;48.254;11.454;2022-09-09T14:36:29;1.92;;;1.02;;
32812;SDS011;19162;48.254;11.454;2022-09-09T14:39:30;0.90;;;0.68;;
32812;SDS011;19162;48.254;11.454;2022-09-09T14:42:30;1.60;;;0.60;;
32812;SDS011;19162;48.254;11.454;2022-09-09T14:45:31;2.90;;;0.73;;
32812;SDS011;19162;48.254;11.454;2022-09-09T14:48:31;1.30;;;0.75;;
32812;SDS011;19162;48.254;11.454;2022-09-09T14:51:31;1.77;;;0.90;;
32812;SDS011;19162;48.254;11.454;2022-09-09T14:54:32;1.70;;;0.70;;
32812;SDS011;19162;48.254;11.454;2022-09-09T14:57:32;2.15;;;0.85;;
32812;SDS011;19162;48.254;11.454;2022-09-09T15:00:32;1.80;;;0.60;;
32812;SDS011;19162;48.254;11.454;2022-09-09T15:03:32;2.00;;;1.20;;
32812;SDS011;19162;48.254;11.454;2022-09-09T15:06:34;4.20;;;2.20;;
32812;SDS011;19162;48.254;11.454;2022-09-09T15:09:34;3.20;;;0.90;;
32812;SDS011;19162;48.254;11.454;2022-09-09T15:12:34;2.70;;;1.23;;
32812;SDS011;19162;48.254;11.454;2022-09-09T15:15:35;1.90;;;1.10;;
32812;SDS011;19162;48.254;11.454;2022-09-09T15:18:35;3.78;;;2.15;;
32812;SDS011;19162;48.254;11.454;2022-09-09T15:21:42;4.03;;;1.40;;
32812;SDS011;19162;48.254;11.454;2022-09-09T15:24:42;2.20;;;1.07;;
32812;SDS011;19162;48.254;11.454;2022-09-09T15:27:42;2.13;;;1.05;;
32812;SDS011;19162;48.254;11.454;2022-09-09T15:30:46;1.52;;;0.88;;
32812;SDS011;19162;48.254;11.454;2022-09-09T15:33:56;2.78;;;1.15;;
32812;SDS011;19162;48.254;11.454;2022-09-09T15:37:03;1.85;;;1.20;;
32812;SDS011;19162;48.254;11.454;2022-09-09T15:40:03;2.40;;;0.97;;
32812;SDS011;19162;48.254;11.454;2022-09-09T15:43:04;1.95;;;0.70;;
32812;SDS011;19162;48.254;11.454;2022-09-09T15:46:25;1.60;;;0.70;;
32812;SDS011;19162;48.254;11.454;2022-09-09T15:49:27;2.40;;;0.82;;
32812;SDS011;19162;48.254;11.454;2022-09-09T15:52:27;1.77;;;0.80;;
32812;SDS011;19162;48.254;11.454;2022-09-09T15:55:28;2.13;;;1.20;;
32812;SDS011;19162;48.254;11.454;2022-09-09T15:58:32;3.83;;;1.23;;
32812;SDS011;19162;48.254;11.454;2022-09-09T16:01:32;2.22;;;0.68;;
32812;SDS011;19162;48.254;11.454;2022-09-09T16:04:33;2.13;;;1.30;;
32812;SDS011;19162;48.254;11.454;2022-09-09T16:07:33;2.97;;;1.00;;
32812;SDS011;19162;48.254;11.454;2022-09-09T16:10:34;3.17;;;1.23;;
32812;SDS011;19162;48.254;11.454;2022-09-09T16:13:36;1.75;;;1.30;;
32812;SDS011;19162;48.254;11.454;2022-09-09T16:16:37;2.88;;;0.90;;
32812;SDS011;19162;48.254;11.454;2022-09-09T16:19:37;1.37;;;0.77;;
32812;SDS011;19162;48.254;11.454;2022-09-09T16:22:37;2.40;;;0.70;;
32812;SDS011;19162;48.254;11.454;2022-09-09T16:25:37;3.47;;;1.00;;
32812;SDS011;19162;48.254;11.454;2022-09-09T16:28:38;1.77;;;0.70;;
32812;SDS011;19162;48.254;11.454;2022-09-09T16:31:39;1.30;;;0.75;;
32812;SDS011;19162;48.254;11.454;2022-09-09T16:34:40;1.13;;;0.70;;
32812;SDS011;19162;48.254;11.454;2022-09-09T16:37:42;3.63;;;1.00;;
32812;SDS011;19162;48.254;11.454;2022-09-09T16:40:43;1.40;;;0.50;;
32812;SDS011;19162;48.254;11.454;2022-09-09T16:43:43;4.03;;;1.00;;
32812;SDS011;19162;48.254;11.454;2022-09-09T16:46:44;1.90;;;0.95;;
32812;SDS011;19162;48.254;11.454;2022-09-09T16:49:44;1.75;;;0.85;;
32812;SDS011;19162;48.254;11.454;2022-09-09T16:52:44;1.40;;;0.80;;
32812;SDS011;19162;48.254;11.454;2022-09-09T16:55:44;1.70;;;0.65;;
32812;SDS011;19162;48.254;11.454;2022-09-09T16:58:48;1.88;;;0.55;;
32812;SDS011;19162;48.254;11.454;2022-09-09T17:01:49;1.90;;;1.00;;
32812;SDS011;19162;48.254;11.454;2022-09-09T17:04:50;3.17;;;1.20;;
32812;SDS011;19162;48.254;11.454;2022-09-09T17:07:50;3.72;;;0.82;;
32812;SDS011;19162;48.254;11.454;2022-09-09T17:10:51;1.58;;;0.85;;
32812;SDS011;19162;48.254;11.454;2022-09-09T17:13:51;2.28;;;0.82;;
32812;SDS011;19162;48.254;11.454;2022-09-09T17:16:52;1.40;;;0.95;;
32812;SDS011;19162;48.254;11.454;2022-09-09T17:19:52;2.97;;;0.90;;
32812;SDS011;19162;48.254;11.454;2022-09-09T17:22:52;1.50;;;1.10;;
32812;SDS011;19162;48.254;11.454;2022-09-09T17:25:56;2.38;;;0.80;;
32812;SDS011;19162;48.254;11.454;2022-09-09T17:28:57;3.40;;;0.85;;
32812;SDS011;19162;48.254;11.454;2022-09-09T17:32:00;1.92;;;1.23;;
32812;SDS011;19162;48.254;11.454;2022-09-09T17:35:01;3.57;;;1.57;;
32812;SDS011;19162;48.254;11.454;2022-09-09T17:38:01;1.10;;;1.00;;
32812;SDS011;19162;48.254;11.454;2022-09-09T17:41:06;4.80;;;1.60;;
32812;SDS011;19162;48.254;11.454;2022-09-09T17:44:07;1.95;;;1.70;;
32812;SDS011;19162;48.254;11.454;2022-09-09T17:47:07;2.78;;;1.55;;
32812;SDS011;19162;48.254;11.454;2022-09-09T17:50:07;3.45;;;1.85;;
32812;SDS011;19162;48.254;11.454;2022-09-09T17:53:08;3.15;;;1.75;;
32812;SDS011;19162;48.254;11.454;2022-09-09T17:56:08;3.13;;;1.93;;
32812;SDS011;19162;48.254;11.454;2022-09-09T17:59:09;3.88;;;1.58;;
32812;SDS011;19162;48.254;11.454;2022-09-09T18:02:11;4.63;;;1.70;;
32812;SDS011;19162;48.254;11.454;2022-09-09T18:05:11;2.33;;;1.30;;
32812;SDS011;19162;48.254;11.454;2022-09-09T18:08:11;2.92;;;1.23;;
32812;SDS011;19162;48.254;11.454;2022-09-09T18:11:12;2.40;;;1.75;;
32812;SDS011;19162;48.254;11.454;2022-09-09T18:14:20;2.75;;;1.40;;
32812;SDS011;19162;48.254;11.454;2022-09-09T18:17:20;3.75;;;1.90;;
32812;SDS011;19162;48.254;11.454;2022-09-09T18:20:20;4.27;;;1.50;;
32812;SDS011;19162;48.254;11.454;2022-09-09T18:23:22;2.53;;;1.52;;
32812;SDS011;19162;48.254;11.454;2022-09-09T18:26:23;2.40;;;1.05;;
32812;SDS011;19162;48.254;11.454;2022-09-09T18:29:23;1.95;;;1.40;;
32812;SDS011;19162;48.254;11.454;2022-09-09T18:32:24;3.38;;;1.00;;
32812;SDS011;19162;48.254;11.454;2022-09-09T18:35:24;1.75;;;1.05;;
32812;SDS011;19162;48.254;11.454;2022-09-09T18:38:24;3.77;;;1.17;;
32812;SDS011;19162;48.254;11.454;2022-09-09T18:41:26;2.90;;;1.38;;
32812;SDS011;19162;48.254;11.454;2022-09-09T18:44:28;2.83;;;1.10;;
32812;SDS011;19162;48.254;11.454;2022-09-09T18:47:29;1.05;;;0.95;;
32812;SDS011;19162;48.254;11.454;2022-09-09T18:50:29;1.97;;;1.23;;
32812;SDS011;19162;48.254;11.454;2022-09-09T18:53:29;1.90;;;1.47;;
32812;SDS011;19162;48.254;11.454;2022-09-09T18:56:30;1.67;;;1.57;;
32812;SDS011;19162;48.254;11.454;2022-09-09T18:59:30;1.35;;;1.15;;
32812;SDS011;19162;48.254;11.454;2022-09-09T19:02:31;2.50;;;0.90;;
32812;SDS011;19162;48.254;11.454;2022-09-09T19:05:32;3.00;;;0.85;;
32812;SDS011;19162;48.254;11.454;2022-09-09T19:08:36;1.92;;;1.00;;
32812;SDS011;19162;48.254;11.454;2022-09-09T19:11:37;1.10;;;0.60;;
32812;SDS011;19162;48.254;11.454;2022-09-09T19:14:37;1.73;;;1.00;;
32812;SDS011;19162;48.254;11.454;2022-09-09T19:17:37;1.92;;;0.88;;
32812;SDS011;19162;48.254;11.454;2022-09-09T19:20:38;1.42;;;0.52;;
32812;SDS011;19162;48.254;11.454;2022-09-09T19:23:38;1.80;;;0.70;;
32812;SDS011;19162;48.254;11.454;2022-09-09T19:26:40;1.20;;;0.60;;
32812;SDS011;19162;48.254;11.454;2022-09-09T19:29:42;2.42;;;0.60;;
32812;SDS011;19162;48.254;11.454;2022-09-09T19:32:43;1.38;;;0.55;;
32812;SDS011;19162;48.254;11.454;2022-09-09T19:35:43;3.33;;;0.70;;
32812;SDS011;19162;48.254;11.454;2022-09-09T19:38:44;2.60;;;0.77;;
32812;SDS011;19162;48.254;11.454;2022-09-09T19:41:45;2.10;;;0.77;;